createdAt,value
2018-11-22T00:02:46.470Z,2.29
2018-11-22T00:05:34.985Z,2.31
2018-11-22T00:08:22.395Z,2.31
2018-11-22T00:11:17.301Z,2.32
2018-11-22T00:14:04.405Z,2.31
2018-11-22T00:16:53.157Z,2.28
2018-11-22T00:19:40.789Z,2.23
2018-11-22T00:22:27.830Z,2.16
2018-11-22T00:25:15.018Z,2.92
2018-11-22T00:28:03.014Z,2.37
2018-11-22T00:30:51.118Z,2.30
2018-11-22T00:33:38.372Z,2.27
2018-11-22T00:36:25.693Z,2.23
2018-11-22T00:39:12.799Z,2.98
2018-11-22T00:41:59.990Z,2.48
2018-11-22T00:47:53.360Z,3.15
2018-11-22T00:50:42.144Z,3.34
2018-11-22T00:53:30.325Z,3.46
2018-11-22T00:56:19.162Z,3.60
2018-11-22T00:59:07.092Z,3.70
2018-11-22T01:02:02.105Z,3.78
2018-11-22T01:04:51.384Z,3.03
2018-11-22T01:07:38.526Z,2.84
2018-11-22T01:10:25.793Z,2.74
2018-11-22T01:13:13.132Z,2.64
2018-11-22T01:25:20.092Z,3.52
2018-11-22T01:28:15.230Z,2.90
2018-11-22T01:31:10.111Z,2.74
2018-11-22T01:33:57.370Z,2.66
2018-11-22T01:36:44.489Z,2.58
2018-11-22T01:39:31.942Z,2.53
2018-11-22T01:42:20.899Z,2.50
2018-11-22T01:45:08.203Z,2.48
2018-11-22T01:51:05.773Z,2.41
2018-11-22T01:53:53.831Z,2.30
2018-11-22T01:56:41.296Z,2.28
2018-11-22T01:59:28.764Z,2.26
2018-11-22T02:02:18.184Z,2.16
2018-11-22T02:08:12.590Z,2.16
2018-11-22T02:14:06.029Z,2.19
2018-11-22T02:16:54.435Z,2.21
2018-11-22T02:25:54.689Z,2.21
2018-11-22T02:31:48.108Z,2.20
2018-11-22T02:37:44.985Z,2.19
2018-11-22T02:40:48.239Z,2.19
2018-11-22T02:43:36.088Z,2.96
2018-11-22T02:46:23.594Z,2.48
2018-11-22T02:49:13.553Z,2.40
2018-11-22T02:52:01.232Z,2.36
2018-11-22T02:58:00.153Z,2.30
2018-11-22T03:00:49.914Z,3.04
2018-11-22T03:03:40.880Z,2.51
2018-11-22T03:09:35.908Z,2.36
2018-11-22T03:12:24.570Z,3.09
2018-11-22T03:15:14.167Z,2.57
2018-11-22T03:21:18.309Z,2.37
2018-11-22T03:27:20.105Z,2.29
2018-11-22T03:30:15.496Z,2.29
2018-11-22T03:33:03.215Z,2.29
2018-11-22T03:35:51.120Z,2.26
2018-11-22T03:51:16.772Z,2.18
2018-11-22T03:54:05.020Z,2.19
2018-11-22T04:03:22.770Z,2.15
2018-11-22T04:09:16.873Z,2.15
2018-11-22T04:12:04.752Z,2.16
2018-11-22T04:14:52.492Z,2.14
2018-11-22T04:17:40.523Z,2.90
2018-11-22T04:20:43.392Z,2.44
2018-11-22T04:23:31.075Z,2.35
2018-11-22T04:26:24.041Z,2.33
2018-11-22T04:35:20.987Z,2.31
2018-11-22T04:38:08.468Z,2.31
2018-11-22T04:41:02.550Z,2.29
2018-11-22T04:43:52.230Z,3.07
2018-11-22T04:56:11.201Z,2.43
2018-11-22T04:59:02.695Z,2.42
2018-11-22T05:01:51.189Z,2.41
2018-11-22T05:04:38.402Z,2.40
2018-11-22T05:07:27.877Z,2.42
2018-11-22T05:10:19.078Z,2.40
2018-11-22T05:13:09.802Z,3.13
2018-11-22T05:19:08.281Z,2.51
2018-11-22T05:25:06.838Z,2.43
2018-11-22T05:27:55.774Z,2.42
2018-11-22T05:36:56.320Z,2.39
2018-11-22T05:39:47.615Z,2.39
2018-11-22T05:42:35.034Z,2.40
2018-11-22T05:45:22.689Z,3.14
2018-11-22T05:48:11.151Z,2.69
2018-11-22T05:50:58.862Z,2.57
2018-11-22T05:53:46.917Z,2.53
2018-11-22T05:56:34.560Z,3.28
2018-11-22T06:02:28.003Z,2.68
2018-11-22T06:05:16.188Z,3.41
2018-11-22T06:08:03.504Z,2.90
2018-11-22T06:10:55.266Z,2.79
2018-11-22T06:13:44.861Z,2.73
2018-11-22T06:16:33.218Z,2.69
2018-11-22T06:19:23.118Z,3.45
2018-11-22T06:22:11.257Z,2.93
2018-11-22T06:25:03.647Z,3.63
2018-11-22T06:27:46.639Z,3.84
2018-11-22T06:30:38.094Z,3.16
2018-11-22T06:33:26.196Z,3.01
2018-11-22T06:36:16.109Z,2.94
2018-11-22T06:39:03.234Z,2.88
2018-11-22T06:44:57.598Z,2.79
2018-11-22T06:47:44.673Z,2.77
2018-11-22T06:50:33.174Z,3.53
2018-11-22T06:53:21.863Z,3.00
2018-11-22T06:56:10.086Z,2.90
2018-11-22T06:59:07.621Z,2.82
2018-11-22T07:02:12.222Z,2.80
2018-11-22T07:04:59.739Z,2.78
2018-11-22T07:26:40.749Z,2.81
2018-11-22T07:29:33.015Z,3.59
2018-11-22T07:35:26.881Z,2.95
2018-11-22T07:38:30.479Z,2.93
2018-11-22T07:41:18.660Z,2.91
2018-11-22T07:50:19.471Z,2.96
2018-11-22T07:53:07.653Z,2.96
2018-11-22T07:55:55.956Z,3.75
2018-11-22T07:58:43.779Z,3.22
2018-11-22T08:04:39.011Z,3.08
2018-11-22T08:07:34.300Z,3.09
2018-11-22T08:10:22.914Z,3.93
2018-11-22T08:13:12.656Z,3.43
2018-11-22T08:15:59.983Z,3.33
2018-11-22T08:18:46.967Z,3.26
2018-11-22T08:21:38.274Z,3.28
2018-11-22T08:24:22.525Z,3.22
2018-11-22T08:27:09.844Z,3.18
2018-11-22T08:30:00.137Z,3.17
2018-11-22T08:32:52.599Z,3.16
2018-11-22T08:35:43.273Z,3.18
2018-11-22T08:38:31.779Z,3.17
2018-11-22T08:41:19.754Z,3.18
2018-11-22T08:44:06.666Z,3.16
2018-11-22T08:50:00.551Z,3.20
2018-11-22T08:52:48.770Z,3.19
2018-11-22T08:55:36.824Z,3.21
2018-11-22T08:58:24.484Z,3.15
2018-11-22T09:01:11.689Z,3.18
2018-11-22T09:03:58.674Z,3.15
2018-11-22T09:06:45.698Z,3.17
2018-11-22T09:09:33.013Z,3.23
2018-11-22T09:15:31.480Z,3.33
2018-11-22T09:18:15.580Z,3.38
2018-11-22T09:21:02.537Z,3.46
2018-11-22T09:23:49.671Z,3.52
2018-11-22T09:26:36.626Z,3.55
2018-11-22T09:29:39.608Z,3.59
2018-11-22T09:32:24.945Z,3.66
2018-11-22T09:35:13.275Z,3.71
2018-11-22T09:41:08.191Z,3.78
2018-11-22T09:43:55.760Z,4.63
2018-11-22T09:46:42.922Z,4.09
2018-11-22T09:52:43.803Z,4.05
2018-11-22T09:55:33.195Z,4.08
2018-11-22T09:58:22.184Z,4.10
2018-11-22T10:01:10.456Z,4.13
2018-11-22T10:03:57.554Z,4.10
2018-11-22T10:06:45.031Z,4.01
2018-11-22T10:09:32.481Z,4.86
2018-11-22T10:12:19.510Z,5.08
2018-11-22T10:15:08.908Z,4.40
2018-11-22T10:17:59.965Z,4.25
2018-11-22T10:20:47.700Z,4.15
2018-11-22T10:23:37.485Z,4.10
2018-11-22T10:26:25.842Z,4.04
2018-11-22T10:29:14.641Z,4.00
2018-11-22T10:32:02.416Z,3.94
2018-11-22T10:34:50.818Z,4.00
2018-11-22T10:37:43.773Z,4.04
2018-11-22T10:40:31.310Z,4.08
2018-11-22T10:43:21.420Z,4.10
2018-11-22T10:46:10.035Z,4.95
2018-11-22T10:48:57.630Z,4.32
2018-11-22T10:51:46.510Z,4.18
2018-11-22T10:54:34.243Z,4.17
2018-11-22T11:03:43.567Z,4.07
2018-11-22T11:06:52.500Z,4.10
2018-11-22T11:09:40.578Z,4.09
2018-11-22T11:12:28.181Z,4.11
2018-11-22T11:15:15.668Z,4.13
2018-11-22T11:18:04.867Z,4.23
2018-11-22T11:20:52.275Z,4.24
2018-11-22T11:23:40.864Z,5.11
2018-11-22T11:26:35.893Z,4.54
2018-11-22T11:29:25.029Z,4.45
2018-11-22T11:32:13.165Z,4.51
2018-11-22T11:35:00.662Z,4.46
2018-11-22T11:37:48.844Z,4.44
2018-11-22T11:40:40.406Z,4.45
2018-11-22T11:46:35.751Z,4.57
2018-11-22T11:49:24.496Z,5.49
2018-11-22T11:52:13.906Z,5.79
2018-11-22T11:55:01.966Z,5.17
2018-11-22T11:57:49.276Z,5.10
2018-11-22T12:00:36.499Z,5.09
2018-11-22T12:03:24.274Z,5.96
2018-11-22T12:06:12.677Z,5.32
2018-11-22T12:09:02.679Z,5.25
2018-11-22T12:11:48.801Z,5.24
2018-11-22T12:14:36.330Z,5.19
2018-11-22T12:17:23.670Z,5.13
2018-11-22T12:23:18.542Z,5.05
2018-11-22T12:26:06.888Z,5.08
2018-11-22T12:28:54.635Z,5.09
2018-11-22T12:31:42.962Z,5.09
2018-11-22T12:34:30.690Z,5.10
2018-11-22T12:37:19.075Z,5.07
2018-11-22T12:43:15.920Z,4.91
2018-11-22T12:46:18.812Z,4.93
2018-11-22T12:49:08.627Z,5.87
2018-11-22T12:51:56.858Z,5.25
2018-11-22T12:54:48.399Z,5.13
2018-11-22T12:57:36.219Z,5.02
2018-11-22T13:00:24.724Z,4.90
2018-11-22T13:03:12.088Z,4.87
2018-11-22T13:09:05.871Z,4.81
2018-11-22T13:11:54.653Z,4.80
2018-11-22T13:14:42.137Z,5.66
2018-11-22T13:17:31.490Z,4.98
2018-11-22T13:29:41.780Z,4.65
2018-11-22T13:32:40.491Z,4.58
2018-11-22T13:41:41.067Z,4.68
2018-11-22T13:44:28.894Z,5.42
2018-11-22T13:53:37.676Z,4.48
2018-11-22T14:02:37.179Z,4.30
2018-11-22T14:05:24.754Z,5.09
2018-11-22T14:08:12.351Z,4.51
2018-11-22T14:11:13.523Z,4.42
2018-11-22T14:13:55.520Z,4.40
2018-11-22T14:16:52.466Z,4.34
2018-11-22T14:19:39.911Z,5.16
2018-11-22T14:22:27.203Z,5.41
2018-11-22T14:25:15.713Z,4.77
2018-11-22T14:28:05.655Z,5.43
2018-11-22T14:34:05.803Z,4.60
2018-11-22T14:36:54.112Z,5.34
2018-11-22T14:42:52.298Z,4.47
2018-11-22T14:45:39.635Z,4.37
2018-11-22T14:48:28.473Z,4.33
2018-11-22T14:51:15.565Z,4.29
2018-11-22T14:57:13.457Z,4.50
2018-11-22T15:00:02.134Z,4.39
2018-11-22T15:02:50.484Z,4.32
2018-11-22T15:05:39.373Z,4.28
2018-11-22T15:08:27.283Z,4.25
2018-11-22T15:11:15.094Z,4.20
2018-11-22T15:14:03.109Z,4.15
2018-11-22T15:16:50.954Z,4.13
2018-11-22T15:19:38.309Z,4.11
2018-11-22T15:22:28.673Z,4.09
2018-11-22T15:25:16.404Z,4.06
2018-11-22T15:28:04.466Z,4.05
2018-11-22T15:30:53.905Z,4.05
2018-11-22T15:33:43.286Z,4.00
2018-11-22T15:36:31.791Z,4.01
2018-11-22T15:39:19.350Z,4.00
2018-11-22T15:42:07.371Z,3.97
2018-11-22T15:44:54.981Z,3.96
2018-11-22T15:47:42.411Z,3.96
2018-11-22T15:50:30.967Z,3.97
2018-11-22T15:53:20.012Z,3.96
2018-11-22T15:59:26.108Z,3.95
2018-11-22T16:02:16.457Z,3.95
2018-11-22T16:05:03.340Z,3.95
2018-11-22T16:07:50.549Z,3.93
2018-11-22T16:10:41.127Z,3.93
2018-11-22T16:13:28.467Z,3.89
2018-11-22T16:16:15.502Z,3.88
2018-11-22T16:19:03.981Z,3.87
2018-11-22T16:21:54.857Z,3.88
2018-11-22T16:27:50.119Z,3.84
2018-11-22T16:30:38.101Z,3.83
2018-11-22T16:33:26.020Z,3.83
2018-11-22T16:39:30.855Z,3.81
2018-11-22T16:42:18.285Z,3.81
2018-11-22T16:45:07.208Z,3.81
2018-11-22T16:47:56.613Z,4.58
2018-11-22T16:50:45.102Z,4.09
2018-11-22T16:53:32.395Z,4.00
2018-11-22T16:59:28.048Z,3.88
2018-11-22T17:02:16.062Z,3.87
2018-11-22T17:08:11.608Z,3.83
2018-11-22T17:10:59.440Z,3.83
2018-11-22T17:13:46.458Z,3.80
2018-11-22T17:16:34.097Z,3.79
2018-11-22T17:19:21.585Z,3.77
2018-11-22T17:22:09.403Z,3.74
2018-11-22T17:24:57.626Z,3.73
2018-11-22T17:27:45.546Z,3.72
2018-11-22T17:30:32.469Z,3.72
2018-11-22T17:33:19.345Z,3.72
2018-11-22T17:36:07.610Z,3.72
2018-11-22T17:42:04.258Z,3.69
2018-11-22T17:44:51.504Z,3.68
2018-11-22T17:47:39.085Z,3.65
2018-11-22T17:50:27.904Z,3.62
2018-11-22T17:53:16.968Z,3.60
2018-11-22T17:56:05.812Z,3.59
2018-11-22T17:58:53.100Z,3.58
2018-11-22T18:01:41.179Z,3.56
2018-11-22T18:04:28.786Z,3.57
2018-11-22T18:07:20.052Z,3.54
2018-11-22T18:10:07.295Z,3.53
2018-11-22T18:12:55.136Z,3.52
2018-11-22T18:15:43.487Z,3.53
2018-11-22T18:21:37.021Z,3.53
2018-11-22T18:24:30.533Z,3.54
2018-11-22T18:27:18.871Z,3.54
2018-11-22T18:30:07.745Z,3.54
2018-11-22T18:32:55.583Z,3.54
2018-11-22T18:35:43.685Z,4.28
2018-11-22T18:38:34.346Z,4.51
2018-11-22T18:41:22.212Z,3.92
2018-11-22T18:44:17.677Z,3.81
2018-11-22T18:50:16.376Z,3.71
2018-11-22T18:56:11.866Z,4.74
2018-11-22T19:05:23.610Z,3.95
2018-11-22T19:08:14.016Z,3.85
2018-11-22T19:11:02.561Z,3.79
2018-11-22T19:13:53.711Z,3.74
2018-11-22T19:16:43.738Z,3.71
2018-11-22T19:19:31.809Z,4.46
2018-11-22T19:22:19.759Z,3.93
2018-11-22T19:25:07.535Z,3.79
2018-11-22T19:27:57.669Z,3.71
2018-11-22T19:30:45.158Z,4.45
2018-11-22T19:33:33.540Z,3.87
2018-11-22T19:36:20.686Z,3.77
2018-11-22T19:39:12.866Z,3.69
2018-11-22T19:42:02.471Z,3.67
2018-11-22T19:44:49.933Z,3.65
2018-11-22T19:47:40.968Z,3.64
2018-11-22T19:50:30.526Z,3.60
2018-11-22T19:53:18.140Z,3.55
2018-11-22T19:56:07.412Z,3.54
2018-11-22T19:58:56.150Z,3.53
2018-11-22T20:01:44.354Z,3.50
2018-11-22T20:04:32.120Z,3.49
2018-11-22T20:07:23.826Z,3.46
2018-11-22T20:13:18.024Z,3.48
2018-11-22T20:16:06.625Z,3.47
2018-11-22T20:25:09.836Z,3.48
2018-11-22T20:27:57.771Z,3.50
2018-11-22T20:30:45.330Z,3.51
2018-11-22T20:33:32.783Z,3.50
2018-11-22T20:36:24.042Z,3.53
2018-11-22T20:39:12.123Z,3.52
2018-11-22T20:41:59.621Z,3.52
2018-11-22T20:44:47.799Z,3.52
2018-11-22T20:47:37.595Z,3.50
2018-11-22T20:50:25.749Z,3.50
2018-11-22T20:53:17.404Z,3.51
2018-11-22T20:56:06.312Z,3.49
2018-11-22T20:58:56.506Z,3.50
2018-11-22T21:01:51.622Z,4.28
2018-11-22T21:07:41.528Z,3.72
2018-11-22T21:10:28.936Z,3.70
2018-11-22T21:13:16.052Z,3.69
2018-11-22T21:16:03.234Z,4.44
2018-11-22T21:18:50.987Z,3.96
2018-11-22T21:21:40.710Z,3.82
2018-11-22T21:24:29.656Z,3.76
2018-11-22T21:27:17.041Z,3.72
2018-11-22T21:30:04.413Z,3.70
2018-11-22T21:32:51.792Z,3.68
2018-11-22T21:35:40.042Z,3.67
2018-11-22T21:38:29.299Z,3.66
2018-11-22T21:41:17.278Z,3.66
2018-11-22T21:44:07.456Z,3.63
2018-11-22T21:46:55.010Z,3.58
2018-11-22T21:49:42.695Z,3.57
2018-11-22T21:52:30.263Z,3.55
2018-11-22T21:55:17.833Z,3.52
2018-11-22T21:58:08.696Z,4.26
2018-11-22T22:04:04.444Z,3.65
2018-11-22T22:06:52.510Z,3.57
2018-11-22T22:09:40.321Z,3.54
2018-11-22T22:12:27.880Z,3.52
2018-11-22T22:15:15.912Z,3.50
2018-11-22T22:18:03.497Z,3.44
2018-11-22T22:20:51.301Z,3.44
2018-11-22T22:23:41.719Z,3.41
2018-11-22T22:26:28.920Z,3.40
2018-11-22T22:29:16.445Z,3.41
2018-11-22T22:32:05.251Z,3.41
2018-11-22T22:34:56.163Z,3.42
2018-11-22T22:37:44.081Z,3.43
2018-11-22T22:40:39.325Z,3.44
2018-11-22T22:43:28.487Z,3.43
2018-11-22T22:46:19.874Z,3.43
2018-11-22T22:49:07.728Z,3.43
2018-11-22T22:51:56.342Z,3.44
2018-11-22T22:54:45.778Z,3.45
2018-11-22T22:57:34.443Z,3.41
2018-11-22T23:00:22.080Z,3.38
2018-11-22T23:03:09.520Z,3.37
2018-11-22T23:06:03.651Z,3.31
2018-11-22T23:08:50.729Z,3.25
2018-11-22T23:11:37.768Z,4.00
2018-11-22T23:14:25.995Z,3.49
2018-11-22T23:17:13.403Z,3.39
2018-11-22T23:20:01.090Z,3.31
2018-11-22T23:22:59.159Z,3.27
2018-11-22T23:25:46.920Z,3.22
2018-11-22T23:28:34.392Z,3.20
2018-11-22T23:31:32.900Z,3.95
2018-11-22T23:34:19.867Z,3.42
2018-11-22T23:37:07.744Z,3.32
2018-11-22T23:39:55.556Z,3.27
2018-11-22T23:42:45.910Z,4.02
2018-11-22T23:45:34.350Z,3.45
2018-11-22T23:48:22.560Z,3.32
2018-11-22T23:51:11.023Z,3.28
2018-11-22T23:54:00.015Z,3.25
2018-11-22T23:56:50.583Z,3.24
2018-11-22T23:59:43.130Z,3.23
